sensor_id;sensor_type;location;lat;lon;timestamp;temperature;humidity
32139;DHT22;18644;48.700;9.210;2023-02-08T00:01:33;-0.40;55.40
32139;DHT22;18644;48.700;9.210;2023-02-08T00:03:59;-0.40;55.40
32139;DHT22;18644;48.700;9.210;2023-02-08T00:06:26;-0.40;55.40
32139;DHT22;18644;48.700;9.210;2023-02-08T00:08:53;-0.50;55.50
32139;DHT22;18644;48.700;9.210;2023-02-08T00:11:20;-0.50;55.60
32139;DHT22;18644;48.700;9.210;2023-02-08T00:13:48;-0.50;55.80
32139;DHT22;18644;48.700;9.210;2023-02-08T00:16:15;-0.50;55.90
32139;DHT22;18644;48.700;9.210;2023-02-08T00:18:42;-0.60;55.90
32139;DHT22;18644;48.700;9.210;2023-02-08T00:21:10;-0.60;55.90
32139;DHT22;18644;48.700;9.210;2023-02-08T00:23:38;-0.60;55.90
32139;DHT22;18644;48.700;9.210;2023-02-08T00:26:05;-0.60;55.90
32139;DHT22;18644;48.700;9.210;2023-02-08T00:28:32;-0.70;55.90
32139;DHT22;18644;48.700;9.210;2023-02-08T00:31:00;-0.70;55.90
32139;DHT22;18644;48.700;9.210;2023-02-08T00:33:27;-0.70;56.00
32139;DHT22;18644;48.700;9.210;2023-02-08T00:35:57;-0.70;56.60
32139;DHT22;18644;48.700;9.210;2023-02-08T00:38:25;-0.70;56.20
32139;DHT22;18644;48.700;9.210;2023-02-08T00:40:52;-0.80;56.10
32139;DHT22;18644;48.700;9.210;2023-02-08T00:43:19;-0.80;56.20
32139;DHT22;18644;48.700;9.210;2023-02-08T00:45:46;-0.80;56.30
32139;DHT22;18644;48.700;9.210;2023-02-08T00:48:14;-0.80;56.30
32139;DHT22;18644;48.700;9.210;2023-02-08T00:50:41;-0.90;56.20
32139;DHT22;18644;48.700;9.210;2023-02-08T00:53:07;-0.90;56.40
32139;DHT22;18644;48.700;9.210;2023-02-08T00:55:34;-0.90;56.60
32139;DHT22;18644;48.700;9.210;2023-02-08T00:58:01;-1.00;56.60
32139;DHT22;18644;48.700;9.210;2023-02-08T01:00:28;-1.00;56.70
32139;DHT22;18644;48.700;9.210;2023-02-08T01:02:55;-1.00;56.80
32139;DHT22;18644;48.700;9.210;2023-02-08T01:05:23;-1.00;56.80
32139;DHT22;18644;48.700;9.210;2023-02-08T01:07:50;-1.00;56.80
32139;DHT22;18644;48.700;9.210;2023-02-08T01:10:17;-1.10;56.80
32139;DHT22;18644;48.700;9.210;2023-02-08T01:12:44;-1.10;56.80
32139;DHT22;18644;48.700;9.210;2023-02-08T01:15:11;-1.10;56.80
32139;DHT22;18644;48.700;9.210;2023-02-08T01:17:37;-1.10;56.70
32139;DHT22;18644;48.700;9.210;2023-02-08T01:20:05;-1.10;56.70
32139;DHT22;18644;48.700;9.210;2023-02-08T01:22:34;-1.20;56.80
32139;DHT22;18644;48.700;9.210;2023-02-08T01:25:01;-1.20;56.90
32139;DHT22;18644;48.700;9.210;2023-02-08T01:27:28;-1.20;56.90
32139;DHT22;18644;48.700;9.210;2023-02-08T01:29:55;-1.20;56.90
32139;DHT22;18644;48.700;9.210;2023-02-08T01:32:22;-1.20;56.90
32139;DHT22;18644;48.700;9.210;2023-02-08T01:34:49;-1.30;56.80
32139;DHT22;18644;48.700;9.210;2023-02-08T01:37:16;-1.30;56.70
32139;DHT22;18644;48.700;9.210;2023-02-08T01:39:44;-1.30;56.80
32139;DHT22;18644;48.700;9.210;2023-02-08T01:42:12;-1.30;56.90
32139;DHT22;18644;48.700;9.210;2023-02-08T01:48:03;-1.40;57.20
32139;DHT22;18644;48.700;9.210;2023-02-08T01:50:38;-1.40;57.10
32139;DHT22;18644;48.700;9.210;2023-02-08T01:53:09;-1.40;57.10
32139;DHT22;18644;48.700;9.210;2023-02-08T01:55:43;-1.40;57.10
32139;DHT22;18644;48.700;9.210;2023-02-08T01:58:12;-1.40;57.10
32139;DHT22;18644;48.700;9.210;2023-02-08T02:00:40;-1.40;57.10
32139;DHT22;18644;48.700;9.210;2023-02-08T02:03:07;-1.50;57.00
32139;DHT22;18644;48.700;9.210;2023-02-08T02:05:38;-1.50;57.00
32139;DHT22;18644;48.700;9.210;2023-02-08T02:08:07;-1.50;56.90
32139;DHT22;18644;48.700;9.210;2023-02-08T02:10:37;-1.50;57.00
32139;DHT22;18644;48.700;9.210;2023-02-08T02:13:06;-1.60;56.90
32139;DHT22;18644;48.700;9.210;2023-02-08T02:15:34;-1.60;57.00
32139;DHT22;18644;48.700;9.210;2023-02-08T02:18:02;-1.60;57.10
32139;DHT22;18644;48.700;9.210;2023-02-08T02:20:41;-1.60;57.10
32139;DHT22;18644;48.700;9.210;2023-02-08T02:23:47;-1.60;57.10
32139;DHT22;18644;48.700;9.210;2023-02-08T02:33:29;-1.70;57.30
32139;DHT22;18644;48.700;9.210;2023-02-08T02:36:05;-1.70;57.40
32139;DHT22;18644;48.700;9.210;2023-02-08T02:38:43;-1.70;57.40
32139;DHT22;18644;48.700;9.210;2023-02-08T02:41:23;-1.70;57.40
32139;DHT22;18644;48.700;9.210;2023-02-08T02:44:20;-1.80;57.40
32139;DHT22;18644;48.700;9.210;2023-02-08T02:46:54;-1.80;57.50
32139;DHT22;18644;48.700;9.210;2023-02-08T02:49:32;-1.80;57.50
32139;DHT22;18644;48.700;9.210;2023-02-08T02:52:05;-1.80;57.70
32139;DHT22;18644;48.700;9.210;2023-02-08T02:54:39;-1.80;57.70
32139;DHT22;18644;48.700;9.210;2023-02-08T02:57:11;-1.80;57.70
32139;DHT22;18644;48.700;9.210;2023-02-08T02:59:41;-1.90;57.60
32139;DHT22;18644;48.700;9.210;2023-02-08T03:02:10;-1.80;57.70
32139;DHT22;18644;48.700;9.210;2023-02-08T03:04:51;-1.90;57.60
32139;DHT22;18644;48.700;9.210;2023-02-08T03:07:42;-1.80;57.70
32139;DHT22;18644;48.700;9.210;2023-02-08T03:10:55;-1.90;57.70
32139;DHT22;18644;48.700;9.210;2023-02-08T03:16:48;-1.90;57.70
32139;DHT22;18644;48.700;9.210;2023-02-08T03:19:30;-1.90;58.30
32139;DHT22;18644;48.700;9.210;2023-02-08T03:22:05;-1.90;57.70
32139;DHT22;18644;48.700;9.210;2023-02-08T03:24:45;-1.90;57.70
32139;DHT22;18644;48.700;9.210;2023-02-08T03:27:21;-1.90;57.70
32139;DHT22;18644;48.700;9.210;2023-02-08T03:29:58;-2.00;57.60
32139;DHT22;18644;48.700;9.210;2023-02-08T03:32:35;-2.00;57.60
32139;DHT22;18644;48.700;9.210;2023-02-08T03:35:07;-1.90;57.60
32139;DHT22;18644;48.700;9.210;2023-02-08T03:37:37;-2.00;57.70
32139;DHT22;18644;48.700;9.210;2023-02-08T03:40:12;-2.00;58.00
32139;DHT22;18644;48.700;9.210;2023-02-08T03:42:42;-2.00;57.80
32139;DHT22;18644;48.700;9.210;2023-02-08T03:45:14;-2.10;57.60
32139;DHT22;18644;48.700;9.210;2023-02-08T03:47:44;-2.10;57.70
32139;DHT22;18644;48.700;9.210;2023-02-08T03:50:14;-2.00;57.80
32139;DHT22;18644;48.700;9.210;2023-02-08T03:52:45;-2.10;57.80
32139;DHT22;18644;48.700;9.210;2023-02-08T03:55:16;-2.10;57.90
32139;DHT22;18644;48.700;9.210;2023-02-08T03:57:48;-2.10;58.00
32139;DHT22;18644;48.700;9.210;2023-02-08T04:00:17;-2.10;58.00
32139;DHT22;18644;48.700;9.210;2023-02-08T04:02:51;-2.10;58.00
32139;DHT22;18644;48.700;9.210;2023-02-08T04:05:21;-2.10;58.10
32139;DHT22;18644;48.700;9.210;2023-02-08T04:07:51;-2.10;58.20
32139;DHT22;18644;48.700;9.210;2023-02-08T04:10:18;-2.10;58.20
32139;DHT22;18644;48.700;9.210;2023-02-08T04:12:47;-2.10;58.30
32139;DHT22;18644;48.700;9.210;2023-02-08T04:15:15;-2.10;58.30
32139;DHT22;18644;48.700;9.210;2023-02-08T04:17:42;-2.10;58.30
32139;DHT22;18644;48.700;9.210;2023-02-08T04:20:09;-2.10;58.20
32139;DHT22;18644;48.700;9.210;2023-02-08T04:22:37;-2.10;58.10
32139;DHT22;18644;48.700;9.210;2023-02-08T04:25:05;-2.10;58.10
32139;DHT22;18644;48.700;9.210;2023-02-08T04:27:32;-2.20;58.60
32139;DHT22;18644;48.700;9.210;2023-02-08T04:29:59;-2.20;58.00
32139;DHT22;18644;48.700;9.210;2023-02-08T04:32:26;-2.10;58.00
32139;DHT22;18644;48.700;9.210;2023-02-08T04:34:53;-2.10;58.00
32139;DHT22;18644;48.700;9.210;2023-02-08T04:37:20;-2.10;57.90
32139;DHT22;18644;48.700;9.210;2023-02-08T04:39:47;-2.10;57.80
32139;DHT22;18644;48.700;9.210;2023-02-08T04:42:15;-2.10;57.80
32139;DHT22;18644;48.700;9.210;2023-02-08T04:44:42;-2.10;57.70
32139;DHT22;18644;48.700;9.210;2023-02-08T04:47:09;-2.10;57.70
32139;DHT22;18644;48.700;9.210;2023-02-08T04:49:36;-2.10;57.60
32139;DHT22;18644;48.700;9.210;2023-02-08T04:52:03;-2.10;57.50
32139;DHT22;18644;48.700;9.210;2023-02-08T04:54:30;-2.20;57.50
32139;DHT22;18644;48.700;9.210;2023-02-08T04:56:57;-2.20;57.50
32139;DHT22;18644;48.700;9.210;2023-02-08T04:59:25;-2.20;57.50
32139;DHT22;18644;48.700;9.210;2023-02-08T05:01:52;-2.20;57.50
32139;DHT22;18644;48.700;9.210;2023-02-08T05:04:19;-2.20;57.50
32139;DHT22;18644;48.700;9.210;2023-02-08T05:06:46;-2.20;58.10
32139;DHT22;18644;48.700;9.210;2023-02-08T05:09:13;-2.20;57.50
32139;DHT22;18644;48.700;9.210;2023-02-08T05:11:40;-2.30;57.60
32139;DHT22;18644;48.700;9.210;2023-02-08T05:14:07;-2.30;57.70
32139;DHT22;18644;48.700;9.210;2023-02-08T05:16:35;-2.30;57.90
32139;DHT22;18644;48.700;9.210;2023-02-08T05:19:03;-2.30;57.90
32139;DHT22;18644;48.700;9.210;2023-02-08T05:21:30;-2.30;58.00
32139;DHT22;18644;48.700;9.210;2023-02-08T05:23:57;-2.30;58.00
32139;DHT22;18644;48.700;9.210;2023-02-08T05:26:24;-2.30;58.00
32139;DHT22;18644;48.700;9.210;2023-02-08T05:28:51;-2.30;58.10
32139;DHT22;18644;48.700;9.210;2023-02-08T05:31:20;-2.40;58.00
32139;DHT22;18644;48.700;9.210;2023-02-08T05:33:50;-2.30;58.10
32139;DHT22;18644;48.700;9.210;2023-02-08T05:36:18;-2.40;58.10
32139;DHT22;18644;48.700;9.210;2023-02-08T05:38:47;-2.40;58.10
32139;DHT22;18644;48.700;9.210;2023-02-08T05:41:15;-2.40;58.20
32139;DHT22;18644;48.700;9.210;2023-02-08T05:43:42;-2.40;58.10
32139;DHT22;18644;48.700;9.210;2023-02-08T05:46:10;-2.40;58.10
32139;DHT22;18644;48.700;9.210;2023-02-08T05:48:37;-2.40;58.00
32139;DHT22;18644;48.700;9.210;2023-02-08T05:51:05;-2.40;58.00
32139;DHT22;18644;48.700;9.210;2023-02-08T05:53:33;-2.40;57.90
32139;DHT22;18644;48.700;9.210;2023-02-08T05:56:01;-2.40;57.90
32139;DHT22;18644;48.700;9.210;2023-02-08T05:58:28;-2.50;57.90
32139;DHT22;18644;48.700;9.210;2023-02-08T06:00:55;-2.40;57.90
32139;DHT22;18644;48.700;9.210;2023-02-08T06:03:22;-2.40;57.80
32139;DHT22;18644;48.700;9.210;2023-02-08T06:05:49;-2.40;57.90
32139;DHT22;18644;48.700;9.210;2023-02-08T06:08:17;-2.40;57.80
32139;DHT22;18644;48.700;9.210;2023-02-08T06:10:47;-2.40;57.80
32139;DHT22;18644;48.700;9.210;2023-02-08T06:13:14;-2.30;57.90
32139;DHT22;18644;48.700;9.210;2023-02-08T06:15:41;-2.30;57.80
32139;DHT22;18644;48.700;9.210;2023-02-08T06:18:08;-2.30;57.80
32139;DHT22;18644;48.700;9.210;2023-02-08T06:20:35;-2.30;57.80
32139;DHT22;18644;48.700;9.210;2023-02-08T06:23:02;-2.20;57.70
32139;DHT22;18644;48.700;9.210;2023-02-08T06:25:31;-2.20;57.60
32139;DHT22;18644;48.700;9.210;2023-02-08T06:27:57;-2.20;57.60
32139;DHT22;18644;48.700;9.210;2023-02-08T06:30:24;-2.20;57.50
32139;DHT22;18644;48.700;9.210;2023-02-08T06:32:51;-2.20;57.50
32139;DHT22;18644;48.700;9.210;2023-02-08T06:35:18;-2.20;57.40
32139;DHT22;18644;48.700;9.210;2023-02-08T06:37:45;-2.20;57.40
32139;DHT22;18644;48.700;9.210;2023-02-08T06:40:12;-2.20;57.40
32139;DHT22;18644;48.700;9.210;2023-02-08T06:42:40;-2.20;57.50
32139;DHT22;18644;48.700;9.210;2023-02-08T06:45:08;-2.10;57.50
32139;DHT22;18644;48.700;9.210;2023-02-08T06:47:35;-2.10;57.50
32139;DHT22;18644;48.700;9.210;2023-02-08T06:50:02;-2.10;57.50
32139;DHT22;18644;48.700;9.210;2023-02-08T06:52:30;-2.10;57.50
32139;DHT22;18644;48.700;9.210;2023-02-08T06:54:57;-2.00;57.60
32139;DHT22;18644;48.700;9.210;2023-02-08T06:57:24;-2.00;57.50
32139;DHT22;18644;48.700;9.210;2023-02-08T06:59:52;-2.00;57.50
32139;DHT22;18644;48.700;9.210;2023-02-08T07:02:20;-1.90;57.40
32139;DHT22;18644;48.700;9.210;2023-02-08T07:04:47;-1.90;57.40
32139;DHT22;18644;48.700;9.210;2023-02-08T07:07:15;-1.80;57.40
32139;DHT22;18644;48.700;9.210;2023-02-08T07:09:43;-1.80;57.40
32139;DHT22;18644;48.700;9.210;2023-02-08T07:12:10;-1.80;57.30
32139;DHT22;18644;48.700;9.210;2023-02-08T07:14:40;-1.70;57.30
32139;DHT22;18644;48.700;9.210;2023-02-08T07:17:09;-1.70;57.40
32139;DHT22;18644;48.700;9.210;2023-02-08T07:19:37;-1.70;57.30
32139;DHT22;18644;48.700;9.210;2023-02-08T07:22:04;-1.70;57.30
32139;DHT22;18644;48.700;9.210;2023-02-08T07:24:33;-1.60;57.30
32139;DHT22;18644;48.700;9.210;2023-02-08T07:27:01;-1.60;57.30
32139;DHT22;18644;48.700;9.210;2023-02-08T07:29:29;-1.50;57.30
32139;DHT22;18644;48.700;9.210;2023-02-08T07:31:56;-1.50;57.30
32139;DHT22;18644;48.700;9.210;2023-02-08T07:34:25;-1.40;57.30
32139;DHT22;18644;48.700;9.210;2023-02-08T07:36:53;-1.40;57.30
32139;DHT22;18644;48.700;9.210;2023-02-08T07:39:20;-1.30;57.30
32139;DHT22;18644;48.700;9.210;2023-02-08T07:41:47;-1.20;57.30
32139;DHT22;18644;48.700;9.210;2023-02-08T07:44:14;-1.20;57.30
32139;DHT22;18644;48.700;9.210;2023-02-08T07:46:41;-1.10;57.30
32139;DHT22;18644;48.700;9.210;2023-02-08T07:49:08;-1.00;57.30
32139;DHT22;18644;48.700;9.210;2023-02-08T07:51:36;-0.90;57.30
32139;DHT22;18644;48.700;9.210;2023-02-08T07:54:03;-0.90;57.20
32139;DHT22;18644;48.700;9.210;2023-02-08T07:56:30;-0.80;57.10
32139;DHT22;18644;48.700;9.210;2023-02-08T07:58:57;-0.70;57.10
32139;DHT22;18644;48.700;9.210;2023-02-08T08:01:24;-0.60;57.00
32139;DHT22;18644;48.700;9.210;2023-02-08T08:03:51;-0.50;56.90
32139;DHT22;18644;48.700;9.210;2023-02-08T08:06:19;-0.30;56.90
32139;DHT22;18644;48.700;9.210;2023-02-08T08:08:48;-0.30;56.80
32139;DHT22;18644;48.700;9.210;2023-02-08T08:11:16;-0.10;56.70
32139;DHT22;18644;48.700;9.210;2023-02-08T08:13:44;0.00;56.60
32139;DHT22;18644;48.700;9.210;2023-02-08T08:16:11;0.10;56.60
32139;DHT22;18644;48.700;9.210;2023-02-08T08:18:39;0.20;56.60
32139;DHT22;18644;48.700;9.210;2023-02-08T08:21:06;0.30;56.40
32139;DHT22;18644;48.700;9.210;2023-02-08T08:23:33;0.40;56.20
32139;DHT22;18644;48.700;9.210;2023-02-08T08:26:08;0.60;56.20
32139;DHT22;18644;48.700;9.210;2023-02-08T08:28:36;0.70;56.00
32139;DHT22;18644;48.700;9.210;2023-02-08T08:31:08;0.80;55.90
32139;DHT22;18644;48.700;9.210;2023-02-08T08:33:35;1.00;55.80
32139;DHT22;18644;48.700;9.210;2023-02-08T08:36:03;1.10;55.70
32139;DHT22;18644;48.700;9.210;2023-02-08T08:38:30;1.20;55.50
32139;DHT22;18644;48.700;9.210;2023-02-08T08:40:57;1.30;55.50
32139;DHT22;18644;48.700;9.210;2023-02-08T08:43:25;1.50;55.40
32139;DHT22;18644;48.700;9.210;2023-02-08T08:45:52;1.60;55.30
32139;DHT22;18644;48.700;9.210;2023-02-08T08:48:19;1.80;55.30
32139;DHT22;18644;48.700;9.210;2023-02-08T08:50:46;2.00;55.30
32139;DHT22;18644;48.700;9.210;2023-02-08T08:53:12;2.20;55.20
32139;DHT22;18644;48.700;9.210;2023-02-08T08:55:39;2.40;55.00
32139;DHT22;18644;48.700;9.210;2023-02-08T08:58:06;2.60;54.60
32139;DHT22;18644;48.700;9.210;2023-02-08T09:00:34;2.80;54.30
32139;DHT22;18644;48.700;9.210;2023-02-08T09:03:01;2.90;53.90
32139;DHT22;18644;48.700;9.210;2023-02-08T09:05:31;3.00;53.40
32139;DHT22;18644;48.700;9.210;2023-02-08T09:07:57;3.00;53.20
32139;DHT22;18644;48.700;9.210;2023-02-08T09:10:26;3.10;53.10
32139;DHT22;18644;48.700;9.210;2023-02-08T09:12:53;3.20;52.80
32139;DHT22;18644;48.700;9.210;2023-02-08T09:15:20;3.20;52.60
32139;DHT22;18644;48.700;9.210;2023-02-08T09:17:48;3.30;52.30
32139;DHT22;18644;48.700;9.210;2023-02-08T09:20:15;3.40;52.40
32139;DHT22;18644;48.700;9.210;2023-02-08T09:22:42;3.40;52.40
32139;DHT22;18644;48.700;9.210;2023-02-08T09:25:09;3.50;53.00
32139;DHT22;18644;48.700;9.210;2023-02-08T09:27:36;3.60;52.20
32139;DHT22;18644;48.700;9.210;2023-02-08T09:30:05;3.70;52.20
32139;DHT22;18644;48.700;9.210;2023-02-08T09:32:33;3.80;52.10
32139;DHT22;18644;48.700;9.210;2023-02-08T09:35:02;3.80;52.00
32139;DHT22;18644;48.700;9.210;2023-02-08T09:37:30;3.90;52.10
32139;DHT22;18644;48.700;9.210;2023-02-08T09:39:57;4.00;51.80
32139;DHT22;18644;48.700;9.210;2023-02-08T09:42:31;4.10;51.60
32139;DHT22;18644;48.700;9.210;2023-02-08T09:45:25;4.20;51.30
32139;DHT22;18644;48.700;9.210;2023-02-08T09:47:59;4.30;50.90
32139;DHT22;18644;48.700;9.210;2023-02-08T09:50:34;4.40;50.80
32139;DHT22;18644;48.700;9.210;2023-02-08T09:53:09;4.40;50.80
32139;DHT22;18644;48.700;9.210;2023-02-08T09:55:41;4.50;50.30
32139;DHT22;18644;48.700;9.210;2023-02-08T09:58:16;4.60;50.20
32139;DHT22;18644;48.700;9.210;2023-02-08T10:00:47;4.60;50.00
32139;DHT22;18644;48.700;9.210;2023-02-08T10:03:24;4.70;50.10
32139;DHT22;18644;48.700;9.210;2023-02-08T10:05:56;4.80;49.90
32139;DHT22;18644;48.700;9.210;2023-02-08T10:08:23;4.80;49.80
32139;DHT22;18644;48.700;9.210;2023-02-08T10:10:54;4.90;49.70
32139;DHT22;18644;48.700;9.210;2023-02-08T10:13:32;5.00;49.70
32139;DHT22;18644;48.700;9.210;2023-02-08T10:16:12;5.10;49.30
32139;DHT22;18644;48.700;9.210;2023-02-08T10:18:49;5.20;49.40
32139;DHT22;18644;48.700;9.210;2023-02-08T10:21:33;5.30;48.60
32139;DHT22;18644;48.700;9.210;2023-02-08T10:24:27;5.40;48.30
32139;DHT22;18644;48.700;9.210;2023-02-08T10:27:09;5.50;48.50
32139;DHT22;18644;48.700;9.210;2023-02-08T10:29:52;5.60;48.70
32139;DHT22;18644;48.700;9.210;2023-02-08T10:32:40;5.70;48.90
32139;DHT22;18644;48.700;9.210;2023-02-08T10:35:14;5.80;48.50
32139;DHT22;18644;48.700;9.210;2023-02-08T10:37:47;5.90;48.70
32139;DHT22;18644;48.700;9.210;2023-02-08T10:40:29;6.10;48.60
32139;DHT22;18644;48.700;9.210;2023-02-08T10:43:05;6.20;48.20
32139;DHT22;18644;48.700;9.210;2023-02-08T10:45:42;6.30;48.10
32139;DHT22;18644;48.700;9.210;2023-02-08T10:48:14;6.40;47.90
32139;DHT22;18644;48.700;9.210;2023-02-08T10:50:45;6.50;47.90
32139;DHT22;18644;48.700;9.210;2023-02-08T10:53:15;6.50;47.40
32139;DHT22;18644;48.700;9.210;2023-02-08T10:55:46;6.60;47.20
32139;DHT22;18644;48.700;9.210;2023-02-08T10:58:16;6.70;47.10
32139;DHT22;18644;48.700;9.210;2023-02-08T11:00:44;6.80;47.00
32139;DHT22;18644;48.700;9.210;2023-02-08T11:03:16;6.90;47.00
32139;DHT22;18644;48.700;9.210;2023-02-08T11:05:44;6.90;46.20
32139;DHT22;18644;48.700;9.210;2023-02-08T11:08:14;7.00;45.70
32139;DHT22;18644;48.700;9.210;2023-02-08T11:10:54;7.10;46.30
32139;DHT22;18644;48.700;9.210;2023-02-08T11:13:30;7.20;46.10
32139;DHT22;18644;48.700;9.210;2023-02-08T11:16:00;7.30;46.30
32139;DHT22;18644;48.700;9.210;2023-02-08T11:18:31;7.40;46.20
32139;DHT22;18644;48.700;9.210;2023-02-08T11:21:02;7.50;46.00
32139;DHT22;18644;48.700;9.210;2023-02-08T11:23:33;7.60;45.80
32139;DHT22;18644;48.700;9.210;2023-02-08T11:26:15;7.70;45.40
32139;DHT22;18644;48.700;9.210;2023-02-08T11:28:58;7.80;45.70
32139;DHT22;18644;48.700;9.210;2023-02-08T11:31:26;7.90;45.20
32139;DHT22;18644;48.700;9.210;2023-02-08T11:34:01;8.00;45.60
32139;DHT22;18644;48.700;9.210;2023-02-08T11:36:30;8.10;45.90
32139;DHT22;18644;48.700;9.210;2023-02-08T11:39:02;8.20;45.90
32139;DHT22;18644;48.700;9.210;2023-02-08T11:41:43;8.30;45.90
32139;DHT22;18644;48.700;9.210;2023-02-08T11:44:16;8.40;45.30
32139;DHT22;18644;48.700;9.210;2023-02-08T11:46:47;8.50;44.80
32139;DHT22;18644;48.700;9.210;2023-02-08T11:49:20;8.60;44.90
32139;DHT22;18644;48.700;9.210;2023-02-08T11:51:48;8.60;44.40
32139;DHT22;18644;48.700;9.210;2023-02-08T11:54:36;8.60;44.50
32139;DHT22;18644;48.700;9.210;2023-02-08T11:57:12;8.70;44.40
32139;DHT22;18644;48.700;9.210;2023-02-08T11:59:41;8.80;44.40
32139;DHT22;18644;48.700;9.210;2023-02-08T12:02:26;8.90;44.40
32139;DHT22;18644;48.700;9.210;2023-02-08T12:04:55;8.90;43.70
32139;DHT22;18644;48.700;9.210;2023-02-08T12:07:29;8.90;42.90
32139;DHT22;18644;48.700;9.210;2023-02-08T12:10:28;9.00;43.50
32139;DHT22;18644;48.700;9.210;2023-02-08T12:13:35;9.00;42.60
32139;DHT22;18644;48.700;9.210;2023-02-08T12:16:16;9.10;42.50
32139;DHT22;18644;48.700;9.210;2023-02-08T12:19:26;9.10;42.90
32139;DHT22;18644;48.700;9.210;2023-02-08T12:22:23;9.10;42.30
32139;DHT22;18644;48.700;9.210;2023-02-08T12:24:59;9.10;42.50
32139;DHT22;18644;48.700;9.210;2023-02-08T12:27:38;9.10;43.40
32139;DHT22;18644;48.700;9.210;2023-02-08T12:30:17;9.10;42.90
32139;DHT22;18644;48.700;9.210;2023-02-08T12:33:03;9.10;42.90
32139;DHT22;18644;48.700;9.210;2023-02-08T12:39:05;9.20;42.30
32139;DHT22;18644;48.700;9.210;2023-02-08T12:42:10;9.20;42.90
32139;DHT22;18644;48.700;9.210;2023-02-08T12:44:56;9.30;43.50
32139;DHT22;18644;48.700;9.210;2023-02-08T12:47:49;9.30;43.00
32139;DHT22;18644;48.700;9.210;2023-02-08T12:50:26;9.40;42.90
32139;DHT22;18644;48.700;9.210;2023-02-08T12:53:01;9.50;42.90
32139;DHT22;18644;48.700;9.210;2023-02-08T12:55:34;9.50;42.60
32139;DHT22;18644;48.700;9.210;2023-02-08T12:58:14;9.50;42.30
32139;DHT22;18644;48.700;9.210;2023-02-08T13:00:49;9.50;41.90
32139;DHT22;18644;48.700;9.210;2023-02-08T13:03:28;9.50;41.80
32139;DHT22;18644;48.700;9.210;2023-02-08T13:05:59;9.50;41.80
32139;DHT22;18644;48.700;9.210;2023-02-08T13:08:31;9.50;41.60
32139;DHT22;18644;48.700;9.210;2023-02-08T13:11:05;9.50;41.90
32139;DHT22;18644;48.700;9.210;2023-02-08T13:13:38;9.60;42.10
32139;DHT22;18644;48.700;9.210;2023-02-08T13:16:12;9.60;42.30
32139;DHT22;18644;48.700;9.210;2023-02-08T13:18:46;9.70;42.00
32139;DHT22;18644;48.700;9.210;2023-02-08T13:21:21;9.80;41.90
32139;DHT22;18644;48.700;9.210;2023-02-08T13:23:51;9.80;41.60
32139;DHT22;18644;48.700;9.210;2023-02-08T13:26:21;9.80;41.80
32139;DHT22;18644;48.700;9.210;2023-02-08T13:28:52;9.90;41.70
32139;DHT22;18644;48.700;9.210;2023-02-08T13:31:23;9.90;41.60
32139;DHT22;18644;48.700;9.210;2023-02-08T13:33:54;10.00;41.60
32139;DHT22;18644;48.700;9.210;2023-02-08T13:36:25;10.00;40.40
32139;DHT22;18644;48.700;9.210;2023-02-08T13:38:53;9.90;41.00
32139;DHT22;18644;48.700;9.210;2023-02-08T13:41:23;9.90;41.20
32139;DHT22;18644;48.700;9.210;2023-02-08T13:43:53;9.90;40.90
32139;DHT22;18644;48.700;9.210;2023-02-08T13:46:25;9.90;41.20
32139;DHT22;18644;48.700;9.210;2023-02-08T13:48:55;9.90;41.60
32139;DHT22;18644;48.700;9.210;2023-02-08T13:51:50;10.00;41.60
32139;DHT22;18644;48.700;9.210;2023-02-08T13:54:18;10.00;41.30
32139;DHT22;18644;48.700;9.210;2023-02-08T13:56:47;10.10;41.60
32139;DHT22;18644;48.700;9.210;2023-02-08T14:02:24;10.10;40.80
32139;DHT22;18644;48.700;9.210;2023-02-08T14:04:55;10.10;40.90
32139;DHT22;18644;48.700;9.210;2023-02-08T14:07:38;10.10;41.10
32139;DHT22;18644;48.700;9.210;2023-02-08T14:10:21;10.10;41.10
32139;DHT22;18644;48.700;9.210;2023-02-08T14:12:56;10.10;41.10
32139;DHT22;18644;48.700;9.210;2023-02-08T14:15:31;10.20;41.20
32139;DHT22;18644;48.700;9.210;2023-02-08T14:18:03;10.20;40.80
32139;DHT22;18644;48.700;9.210;2023-02-08T14:20:41;10.20;40.60
32139;DHT22;18644;48.700;9.210;2023-02-08T14:23:22;10.20;40.70
32139;DHT22;18644;48.700;9.210;2023-02-08T14:25:52;10.20;40.90
32139;DHT22;18644;48.700;9.210;2023-02-08T14:28:29;10.20;40.90
32139;DHT22;18644;48.700;9.210;2023-02-08T14:31:00;10.20;40.80
32139;DHT22;18644;48.700;9.210;2023-02-08T14:33:34;10.20;40.80
32139;DHT22;18644;48.700;9.210;2023-02-08T14:36:05;10.20;41.00
32139;DHT22;18644;48.700;9.210;2023-02-08T14:38:52;10.20;41.00
32139;DHT22;18644;48.700;9.210;2023-02-08T14:41:45;10.20;40.40
32139;DHT22;18644;48.700;9.210;2023-02-08T14:47:50;10.10;40.50
32139;DHT22;18644;48.700;9.210;2023-02-08T14:50:22;10.10;40.70
32139;DHT22;18644;48.700;9.210;2023-02-08T14:52:57;10.10;41.50
32139;DHT22;18644;48.700;9.210;2023-02-08T14:55:30;10.00;40.80
32139;DHT22;18644;48.700;9.210;2023-02-08T14:57:58;10.00;40.70
32139;DHT22;18644;48.700;9.210;2023-02-08T15:00:32;10.00;40.60
32139;DHT22;18644;48.700;9.210;2023-02-08T15:03:03;10.00;40.70
32139;DHT22;18644;48.700;9.210;2023-02-08T15:05:35;9.90;40.80
32139;DHT22;18644;48.700;9.210;2023-02-08T15:08:07;9.90;40.70
32139;DHT22;18644;48.700;9.210;2023-02-08T15:10:34;9.90;40.80
32139;DHT22;18644;48.700;9.210;2023-02-08T15:13:17;9.90;40.50
32139;DHT22;18644;48.700;9.210;2023-02-08T15:15:51;9.80;40.30
32139;DHT22;18644;48.700;9.210;2023-02-08T15:18:22;9.80;40.50
32139;DHT22;18644;48.700;9.210;2023-02-08T15:21:00;9.70;40.50
32139;DHT22;18644;48.700;9.210;2023-02-08T15:23:29;9.70;40.40
32139;DHT22;18644;48.700;9.210;2023-02-08T15:25:57;9.60;40.40
32139;DHT22;18644;48.700;9.210;2023-02-08T15:28:26;9.60;40.40
32139;DHT22;18644;48.700;9.210;2023-02-08T15:30:56;9.50;40.50
32139;DHT22;18644;48.700;9.210;2023-02-08T15:33:25;9.50;40.50
32139;DHT22;18644;48.700;9.210;2023-02-08T15:35:57;9.50;40.50
32139;DHT22;18644;48.700;9.210;2023-02-08T15:38:27;9.40;40.20
32139;DHT22;18644;48.700;9.210;2023-02-08T15:41:04;9.30;40.20
32139;DHT22;18644;48.700;9.210;2023-02-08T15:43:32;9.30;40.10
32139;DHT22;18644;48.700;9.210;2023-02-08T15:46:01;9.20;40.30
32139;DHT22;18644;48.700;9.210;2023-02-08T15:48:31;9.10;40.40
32139;DHT22;18644;48.700;9.210;2023-02-08T15:51:00;9.00;40.10
32139;DHT22;18644;48.700;9.210;2023-02-08T15:53:28;8.90;40.10
32139;DHT22;18644;48.700;9.210;2023-02-08T15:55:58;8.80;40.20
32139;DHT22;18644;48.700;9.210;2023-02-08T15:58:29;8.70;40.10
32139;DHT22;18644;48.700;9.210;2023-02-08T16:01:00;8.60;40.30
32139;DHT22;18644;48.700;9.210;2023-02-08T16:03:28;8.50;40.30
32139;DHT22;18644;48.700;9.210;2023-02-08T16:06:00;8.40;40.60
32139;DHT22;18644;48.700;9.210;2023-02-08T16:08:30;8.30;40.50
32139;DHT22;18644;48.700;9.210;2023-02-08T16:10:59;8.20;40.70
32139;DHT22;18644;48.700;9.210;2023-02-08T16:13:29;8.00;40.70
32139;DHT22;18644;48.700;9.210;2023-02-08T16:16:17;7.90;40.70
32139;DHT22;18644;48.700;9.210;2023-02-08T16:18:46;7.80;40.90
32139;DHT22;18644;48.700;9.210;2023-02-08T16:21:26;7.60;41.00
32139;DHT22;18644;48.700;9.210;2023-02-08T16:24:05;7.50;41.10
32139;DHT22;18644;48.700;9.210;2023-02-08T16:26:56;7.40;41.20
32139;DHT22;18644;48.700;9.210;2023-02-08T16:29:28;7.30;41.40